NCAR-RAP Real-Time Weather Data

Output produced by METARs form (23 June 2018  16:13 UTC)
found at http://weather.rap.ucar.edu/surface/
 
Conditions at: KGNV observed 23 June 2018  14:53 UTC
Temperature: 31.7°C (89°F)
Dewpoint: 22.8°C (73°F) [RH = 59%]
Pressure (altimeter): 30.04 inches Hg (1017.4 mb)
[Sea-level pressure: 1016.9 mb]
Winds: from the W (270 degrees) at 10 MPH (9 knots; 4.7 m/s)
Visibility: 10 or more miles (16+ km)
Ceiling: at least 12,000 feet AGL
Clouds: scattered clouds at 3400 feet AGL
Present Weather: no significant weather observed at this time
KGNV 231453Z 27009KT 10SM SCT034 32/23 A3004 RMK AO2 SLP169 T03170228 51006

Conditions at: KGNV observed 23 June 2018  13:53 UTC
Temperature: 30.6°C (87°F)
Dewpoint: 23.3°C (74°F) [RH = 65%]
Pressure (altimeter): 30.03 inches Hg (1017.0 mb)
[Sea-level pressure: 1016.6 mb]
Winds: from the W (260 degrees) at 12 MPH (10 knots; 5.2 m/s)
Visibility: 10 or more miles (16+ km)
Ceiling: at least 12,000 feet AGL
Clouds: few clouds at 2800 feet AGL
Present Weather: no significant weather observed at this time
KGNV 231353Z 26010KT 10SM FEW028 31/23 A3003 RMK AO2 SLP166 T03060233

Conditions at: KGNV observed 23 June 2018  12:53 UTC
Temperature: 29.4°C (85°F)
Dewpoint: 23.9°C (75°F) [RH = 72%]
Pressure (altimeter): 30.04 inches Hg (1017.4 mb)
[Sea-level pressure: 1016.8 mb]
Winds: from the WSW (250 degrees) at 8 MPH (7 knots; 3.6 m/s)
Visibility: 10 or more miles (16+ km)
Ceiling: at least 12,000 feet AGL
Clouds: few clouds at 2600 feet AGL
Present Weather: no significant weather observed at this time
KGNV 231253Z 25007KT 10SM FEW026 29/24 A3004 RMK AO2 SLP168 T02940239

Conditions at: KGNV observed 23 June 2018  12:17 UTC
Temperature: 28.3°C (83°F)
Dewpoint: 23.9°C (75°F) [RH = 77%]
Pressure (altimeter): 30.03 inches Hg (1017.0 mb)
Winds: from the WSW (250 degrees) at 7 MPH (6 knots; 3.1 m/s)
Visibility: 10 or more miles (16+ km)
Ceiling: 3400 feet AGL
Clouds: few clouds at 2300 feet AGL
scattered clouds at 3000 feet AGL
broken clouds at 3400 feet AGL
Present Weather: no significant weather observed at this time
KGNV 231217Z 25006KT 10SM FEW023 SCT030 BKN034 28/24 A3003 RMK AO2 T02830239

Conditions at: KGNV observed 23 June 2018  12:01 UTC
Temperature: 27.8°C (82°F)
Dewpoint: 23.9°C (75°F) [RH = 79%]
Pressure (altimeter): 30.03 inches Hg (1017.0 mb)
Winds: from the SW (230 degrees) at 7 MPH (6 knots; 3.1 m/s)
Visibility: 10 or more miles (16+ km)
Ceiling: 2300 feet AGL
Clouds: broken clouds at 2300 feet AGL
broken clouds at 2800 feet AGL
Present Weather: no significant weather observed at this time
KGNV 231201Z 23006KT 10SM BKN023 BKN028 28/24 A3003 RMK AO2 T02780239

Conditions at: KGNV observed 23 June 2018  11:53 UTC
Temperature: 27.2°C (81°F)
Dewpoint: 23.3°C (74°F) [RH = 79%]
Pressure (altimeter): 30.02 inches Hg (1016.7 mb)
[Sea-level pressure: 1016.3 mb]
Winds: from the SW (230 degrees) at 7 MPH (6 knots; 3.1 m/s)
Visibility: 10 or more miles (16+ km)
Ceiling: 3000 feet AGL
Clouds: scattered clouds at 2300 feet AGL
broken clouds at 3000 feet AGL
Present Weather: no significant weather observed at this time
KGNV 231153Z 23006KT 10SM SCT023 BKN030 27/23 A3002 RMK AO2 SLP163 T02720233 10278 20250 53017

Conditions at: KGNV observed 23 June 2018  10:53 UTC
Temperature: 26.1°C (79°F)
Dewpoint: 23.3°C (74°F) [RH = 85%]
Pressure (altimeter): 30.00 inches Hg (1016.0 mb)
[Sea-level pressure: 1015.5 mb]
Winds: from the W (260 degrees) at 3 MPH (3 knots; 1.6 m/s)
Visibility: 10 or more miles (16+ km)
Ceiling: at least 12,000 feet AGL
Clouds: few clouds at 2400 feet AGL
Present Weather: no significant weather observed at this time
KGNV 231053Z 26003KT 10SM FEW024 26/23 A3000 RMK AO2 SLP155 T02610233

Conditions at: KGNV observed 23 June 2018  09:53 UTC
Temperature: 26.1°C (79°F)
Dewpoint: 23.3°C (74°F) [RH = 85%]
Pressure (altimeter): 29.99 inches Hg (1015.7 mb)
[Sea-level pressure: 1015.1 mb]
Winds: from the SSW (210 degrees) at 3 MPH (3 knots; 1.6 m/s)
Visibility: 9 miles (14 km)
Ceiling: at least 12,000 feet AGL
Clouds: few clouds at 2200 feet AGL
few clouds at 2600 feet AGL
Present Weather: automated observation with no human augmentation;
there may or may not be significant weather present at this time
KGNV 230953Z AUTO 21003KT 9SM FEW022 FEW026 26/23 A2999 RMK AO2 SLP151 T02610233

Conditions at: KGNV observed 23 June 2018  08:53 UTC
Temperature: 26.1°C (79°F)
Dewpoint: 23.3°C (74°F) [RH = 85%]
Pressure (altimeter): 29.97 inches Hg (1015.0 mb)
[Sea-level pressure: 1014.6 mb]
Winds: from the SSW (200 degrees) at 6 MPH (5 knots; 2.6 m/s)
Visibility: 10 or more miles (16+ km)
Ceiling: at least 12,000 feet AGL
Clouds: sky clear below 12,000 feet AGL
Present Weather: automated observation with no human augmentation;
there may or may not be significant weather present at this time
KGNV 230853Z AUTO 20005KT 10SM CLR 26/23 A2997 RMK AO2 SLP146 T02610233 55004

Conditions at: KGNV observed 23 June 2018  07:53 UTC
Temperature: 26.1°C (79°F)
Dewpoint: 23.3°C (74°F) [RH = 85%]
Pressure (altimeter): 29.96 inches Hg (1014.6 mb)
[Sea-level pressure: 1014.2 mb]
Winds: from the SW (220 degrees) at 3 MPH (3 knots; 1.6 m/s)
Visibility: 10 or more miles (16+ km)
Ceiling: at least 12,000 feet AGL
Clouds: sky clear below 12,000 feet AGL
Present Weather: automated observation with no human augmentation;
there may or may not be significant weather present at this time
KGNV 230753Z AUTO 22003KT 10SM CLR 26/23 A2996 RMK AO2 SLP142 T02610233

Conditions at: KGNV observed 23 June 2018  06:53 UTC
Temperature: 26.1°C (79°F)
Dewpoint: 23.3°C (74°F) [RH = 85%]
Pressure (altimeter): 29.98 inches Hg (1015.3 mb)
[Sea-level pressure: 1014.7 mb]
Winds: from the S (180 degrees) at 5 MPH (4 knots; 2.1 m/s)
Visibility: 9 miles (14 km)
Ceiling: at least 12,000 feet AGL
Clouds: few clouds at 1900 feet AGL
Present Weather: automated observation with no human augmentation;
there may or may not be significant weather present at this time
KGNV 230653Z AUTO 18004KT 9SM FEW019 26/23 A2998 RMK AO2 SLP147 T02610233

Conditions at: KGNV observed 23 June 2018  05:53 UTC
Temperature: 26.7°C (80°F)
Dewpoint: 23.3°C (74°F) [RH = 82%]
Pressure (altimeter): 29.98 inches Hg (1015.3 mb)
[Sea-level pressure: 1014.9 mb]
Winds: from the SW (230 degrees) at 6 MPH (5 knots; 2.6 m/s)
Visibility: 10 or more miles (16+ km)
Ceiling: at least 12,000 feet AGL
Clouds: sky clear below 12,000 feet AGL
Present Weather: automated observation with no human augmentation;
there may or may not be significant weather present at this time
KGNV 230553Z AUTO 23005KT 10SM CLR 27/23 A2998 RMK AO2 SLP149 T02670233 10311 20267 58002

Conditions at: KGNV observed 23 June 2018  04:53 UTC
Temperature: 27.2°C (81°F)
Dewpoint: 23.3°C (74°F) [RH = 79%]
Pressure (altimeter): 29.99 inches Hg (1015.7 mb)
[Sea-level pressure: 1015.1 mb]
Winds: from the SW (230 degrees) at 5 MPH (4 knots; 2.1 m/s)
Visibility: 10 or more miles (16+ km)
Ceiling: at least 12,000 feet AGL
Clouds: sky clear below 12,000 feet AGL
Present Weather: automated observation with no human augmentation;
there may or may not be significant weather present at this time
KGNV 230453Z AUTO 23004KT 10SM CLR 27/23 A2999 RMK AO2 SLP151 T02720233 403440250

Conditions at: KGNV observed 23 June 2018  03:53 UTC
Temperature: 27.2°C (81°F)
Dewpoint: 23.3°C (74°F) [RH = 79%]
Pressure (altimeter): 30.00 inches Hg (1016.0 mb)
[Sea-level pressure: 1015.3 mb]
Winds: from the SW (230 degrees) at 5 MPH (4 knots; 2.1 m/s)
Visibility: 10 or more miles (16+ km)
Ceiling: at least 12,000 feet AGL
Clouds: sky clear below 12,000 feet AGL
Present Weather: automated observation with no human augmentation;
there may or may not be significant weather present at this time
KGNV 230353Z AUTO 23004KT 10SM CLR 27/23 A3000 RMK AO2 SLP153 T02720233

Conditions at: KGNV observed 23 June 2018  02:53 UTC
Temperature: 27.2°C (81°F)
Dewpoint: 22.2°C (72°F) [RH = 74%]
Pressure (altimeter): 29.99 inches Hg (1015.7 mb)
[Sea-level pressure: 1015.2 mb]
Winds: from the WSW (250 degrees) at 6 MPH (5 knots; 2.6 m/s)
Visibility: 10 or more miles (16+ km)
Ceiling: at least 12,000 feet AGL
Clouds: sky clear below 12,000 feet AGL
Present Weather: automated observation with no human augmentation;
there may or may not be significant weather present at this time
KGNV 230253Z AUTO 25005KT 10SM CLR 27/22 A2999 RMK AO2 SLP152 T02720222 53016

Conditions at: KGNV observed 23 June 2018  01:53 UTC
Temperature: 27.8°C (82°F)
Dewpoint: 21.7°C (71°F) [RH = 69%]
Pressure (altimeter): 29.97 inches Hg (1015.0 mb)
[Sea-level pressure: 1014.5 mb]
Winds: from the WSW (240 degrees) at 6 MPH (5 knots; 2.6 m/s)
Visibility: 10 or more miles (16+ km)
Ceiling: at least 12,000 feet AGL
Clouds: sky clear below 12,000 feet AGL
Present Weather: no significant weather observed at this time
KGNV 230153Z 24005KT 10SM CLR 28/22 A2997 RMK AO2 SLP145 T02780217

Conditions at: KGNV observed 23 June 2018  00:53 UTC
Temperature: 28.9°C (84°F)
Dewpoint: 20.6°C (69°F) [RH = 61%]
Pressure (altimeter): 29.96 inches Hg (1014.6 mb)
[Sea-level pressure: 1014.1 mb]
Winds: from the WSW (240 degrees) at 6 MPH (5 knots; 2.6 m/s)
Visibility: 10 or more miles (16+ km)
Ceiling: at least 12,000 feet AGL
Clouds: sky clear below 12,000 feet AGL
Present Weather: no significant weather observed at this time
KGNV 230053Z 24005KT 10SM CLR 29/21 A2996 RMK AO2 SLP141 T02890206

Conditions at: KGNV observed 22 June 2018  23:53 UTC
Temperature: 31.1°C (88°F)
Dewpoint: 20.6°C (69°F) [RH = 54%]
Pressure (altimeter): 29.94 inches Hg (1014.0 mb)
[Sea-level pressure: 1013.5 mb]
Winds: from the WSW (240 degrees) at 10 MPH (9 knots; 4.7 m/s)
Visibility: 10 or more miles (16+ km)
Ceiling: at least 12,000 feet AGL
Clouds: sky clear below 12,000 feet AGL
Present Weather: no significant weather observed at this time
KGNV 222353Z 24009KT 10SM CLR 31/21 A2994 RMK AO2 SLP135 T03110206 10344 20311 53003

Conditions at: KGNV observed 22 June 2018  22:53 UTC
Temperature: 32.2°C (90°F)
Dewpoint: 18.9°C (66°F) [RH = 45%]
Pressure (altimeter): 29.93 inches Hg (1013.6 mb)
[Sea-level pressure: 1013.1 mb]
Winds: from the WSW (240 degrees) at 12 MPH (10 knots; 5.2 m/s)
Visibility: 10 or more miles (16+ km)
Ceiling: at least 12,000 feet AGL
Clouds: sky clear below 12,000 feet AGL
Present Weather: no significant weather observed at this time
KGNV 222253Z 24010KT 10SM CLR 32/19 A2993 RMK AO2 SLP131 T03220189

Conditions at: KGNV observed 22 June 2018  21:53 UTC
Temperature: 33.3°C (92°F)
Dewpoint: 19.4°C (67°F) [RH = 44%]
Pressure (altimeter): 29.93 inches Hg (1013.6 mb)
[Sea-level pressure: 1013.1 mb]
Winds: from the W (270 degrees) at 13 MPH (11 knots; 5.7 m/s)
Visibility: 10 or more miles (16+ km)
Ceiling: at least 12,000 feet AGL
Clouds: sky clear below 12,000 feet AGL
Present Weather: no significant weather observed at this time
KGNV 222153Z 27011KT 10SM CLR 33/19 A2993 RMK AO2 SLP131 T03330194

Conditions at: KGNV observed 22 June 2018  20:53 UTC
Temperature: 34.4°C (94°F)
Dewpoint: 20.6°C (69°F) [RH = 45%]
Pressure (altimeter): 29.93 inches Hg (1013.6 mb)
[Sea-level pressure: 1013.2 mb]
Winds: from the W (260 degrees) at 12 MPH (10 knots; 5.2 m/s)
gusting to 18 MPH (16 knots; 8.3 m/s)
Visibility: 10 or more miles (16+ km)
Ceiling: at least 12,000 feet AGL
Clouds: sky clear below 12,000 feet AGL
Present Weather: no significant weather observed at this time
KGNV 222053Z 26010G16KT 10SM CLR 34/21 A2993 RMK AO2 SLP132 T03440206 56015

Conditions at: KGNV observed 22 June 2018  19:53 UTC
Temperature: 34.4°C (94°F)
Dewpoint: 20.6°C (69°F) [RH = 45%]
Pressure (altimeter): 29.94 inches Hg (1014.0 mb)
[Sea-level pressure: 1013.5 mb]
Winds: from the WSW (240 degrees) at 13 MPH (11 knots; 5.7 m/s)
Visibility: 10 or more miles (16+ km)
Ceiling: at least 12,000 feet AGL
Clouds: few clouds at 4800 feet AGL
Present Weather: no significant weather observed at this time
KGNV 221953Z 24011KT 10SM FEW048 34/21 A2994 RMK AO2 SLP135 T03440206

Conditions at: KGNV observed 22 June 2018  18:53 UTC
Temperature: 32.8°C (91°F)
Dewpoint: 21.7°C (71°F) [RH = 52%]
Pressure (altimeter): 29.96 inches Hg (1014.6 mb)
[Sea-level pressure: 1014.1 mb]
Winds: from the SW (220 degrees) at 10 MPH (9 knots; 4.7 m/s)
gusting to 18 MPH (16 knots; 8.3 m/s)
Visibility: 10 or more miles (16+ km)
Ceiling: at least 12,000 feet AGL
Clouds: scattered clouds at 5000 feet AGL
Present Weather: no significant weather observed at this time
KGNV 221853Z 22009G16KT 10SM SCT050 33/22 A2996 RMK AO2 SLP141 T03280217

Conditions at: KGNV observed 22 June 2018  17:53 UTC
Temperature: 33.9°C (93°F)
Dewpoint: 21.1°C (70°F) [RH = 47%]
Pressure (altimeter): 29.98 inches Hg (1015.3 mb)
[Sea-level pressure: 1014.7 mb]
Winds: from the W (260 degrees) at 12 MPH (10 knots; 5.2 m/s)
gusting to 16 MPH (14 knots; 7.3 m/s)
Visibility: 10 or more miles (16+ km)
Ceiling: at least 12,000 feet AGL
Clouds: sky clear below 12,000 feet AGL
Present Weather: no significant weather observed at this time
KGNV 221753Z 26010G14KT 10SM CLR 34/21 A2998 RMK AO2 SLP147 T03390211 10339 20272 58006

Conditions at: KGNV observed 22 June 2018  16:53 UTC
Temperature: 33.3°C (92°F)
Dewpoint: 18.9°C (66°F) [RH = 43%]
Pressure (altimeter): 29.99 inches Hg (1015.7 mb)
[Sea-level pressure: 1015.2 mb]
Winds: from the W (260 degrees) at 10 MPH (9 knots; 4.7 m/s)
Visibility: 10 or more miles (16+ km)
Ceiling: at least 12,000 feet AGL
Clouds: sky clear below 12,000 feet AGL
Present Weather: no significant weather observed at this time
KGNV 221653Z 26009KT 10SM CLR 33/19 A2999 RMK AO2 SLP152 T03330189

Conditions at: KGNV observed 22 June 2018  15:53 UTC
Temperature: 32.2°C (90°F)
Dewpoint: 21.1°C (70°F) [RH = 52%]
Pressure (altimeter): 29.99 inches Hg (1015.7 mb)
[Sea-level pressure: 1015.0 mb]
Winds: from the WNW (290 degrees) at 8 MPH (7 knots; 3.6 m/s)
Visibility: 10 or more miles (16+ km)
Ceiling: at least 12,000 feet AGL
Clouds: sky clear below 12,000 feet AGL
Present Weather: no significant weather observed at this time
KGNV 221553Z 29007KT 10SM CLR 32/21 A2999 RMK AO2 SLP150 T03220211

Conditions at: KGNV observed 22 June 2018  14:53 UTC
Temperature: 31.1°C (88°F)
Dewpoint: 23.3°C (74°F) [RH = 63%]
Pressure (altimeter): 30.00 inches Hg (1016.0 mb)
[Sea-level pressure: 1015.4 mb]
Winds: from the W (260 degrees) at 10 MPH (9 knots; 4.7 m/s)
Visibility: 10 or more miles (16+ km)
Ceiling: at least 12,000 feet AGL
Clouds: scattered clouds at 2800 feet AGL
scattered clouds at 3400 feet AGL
Present Weather: no significant weather observed at this time
KGNV 221453Z 26009KT 10SM SCT028 SCT034 31/23 A3000 RMK AO2 SLP154 T03110233 51003

Conditions at: KGNV observed 22 June 2018  13:53 UTC
Temperature: 30.6°C (87°F)
Dewpoint: 23.3°C (74°F) [RH = 65%]
Pressure (altimeter): 29.99 inches Hg (1015.7 mb)
[Sea-level pressure: 1015.3 mb]
Winds: from the NW (310 degrees) at 10 MPH (9 knots; 4.7 m/s)
Visibility: 10 or more miles (16+ km)
Ceiling: at least 12,000 feet AGL
Clouds: few clouds at 2100 feet AGL
Present Weather: no significant weather observed at this time
KGNV 221353Z 31009KT 10SM FEW021 31/23 A2999 RMK AO2 SLP153 T03060233

Conditions at: KGNV observed 22 June 2018  12:53 UTC
Temperature: 29.4°C (85°F)
Dewpoint: 23.9°C (75°F) [RH = 72%]
Pressure (altimeter): 30.00 inches Hg (1016.0 mb)
[Sea-level pressure: 1015.5 mb]
Winds: from the WNW (290 degrees) at 9 MPH (8 knots; 4.2 m/s)
Visibility: 10 or more miles (16+ km)
Ceiling: at least 12,000 feet AGL
Clouds: sky clear below 12,000 feet AGL
Present Weather: no significant weather observed at this time
KGNV 221253Z 29008KT 10SM CLR 29/24 A3000 RMK AO2 SLP155 T02940239

Conditions at: KGNV observed 22 June 2018  11:53 UTC
Temperature: 27.2°C (81°F)
Dewpoint: 23.9°C (75°F) [RH = 82%]
Pressure (altimeter): 29.99 inches Hg (1015.7 mb)
[Sea-level pressure: 1015.0 mb]
Winds: from the W (280 degrees) at 6 MPH (5 knots; 2.6 m/s)
Visibility: 10 or more miles (16+ km)
Ceiling: at least 12,000 feet AGL
Clouds: sky clear below 12,000 feet AGL
Present Weather: no significant weather observed at this time
KGNV 221153Z 28005KT 10SM CLR 27/24 A2999 RMK AO2 SLP150 70008 T02720239 10272 20250 51018

Conditions at: KGNV observed 22 June 2018  10:53 UTC
Temperature: 25.6°C (78°F)
Dewpoint: 23.3°C (74°F) [RH = 87%]
Pressure (altimeter): 29.97 inches Hg (1015.0 mb)
[Sea-level pressure: 1014.6 mb]
Winds: from the W (280 degrees) at 3 MPH (3 knots; 1.6 m/s)
Visibility: 7 miles (11 km)
Ceiling: at least 12,000 feet AGL
Clouds: sky clear below 12,000 feet AGL
Present Weather: no significant weather observed at this time
KGNV 221053Z 28003KT 7SM CLR 26/23 A2997 RMK AO2 SLP146 T02560233

Conditions at: KGNV observed 22 June 2018  09:53 UTC
Temperature: 25.6°C (78°F)
Dewpoint: 23.3°C (74°F) [RH = 87%]
Pressure (altimeter): 29.95 inches Hg (1014.3 mb)
[Sea-level pressure: 1013.9 mb]
Winds: from the W (280 degrees) at 5 MPH (4 knots; 2.1 m/s)
Visibility: 9 miles (14 km)
Ceiling: at least 12,000 feet AGL
Clouds: sky clear below 12,000 feet AGL
Present Weather: automated observation with no human augmentation;
there may or may not be significant weather present at this time
KGNV 220953Z AUTO 28004KT 9SM CLR 26/23 A2995 RMK AO2 SLP139 T02560233

Conditions at: KGNV observed 22 June 2018  08:53 UTC
Temperature: 26.1°C (79°F)
Dewpoint: 23.9°C (75°F) [RH = 88%]
Pressure (altimeter): 29.93 inches Hg (1013.6 mb)
[Sea-level pressure: 1013.2 mb]
Winds: from the W (260 degrees) at 6 MPH (5 knots; 2.6 m/s)
Visibility: 10 or more miles (16+ km)
Ceiling: at least 12,000 feet AGL
Clouds: sky clear below 12,000 feet AGL
Present Weather: automated observation with no human augmentation;
there may or may not be significant weather present at this time
KGNV 220853Z AUTO 26005KT 10SM CLR 26/24 A2993 RMK AO2 SLP132 T02610239 53001

Conditions at: KGNV observed 22 June 2018  07:53 UTC
Temperature: 26.7°C (80°F)
Dewpoint: 23.9°C (75°F) [RH = 85%]
Pressure (altimeter): 29.92 inches Hg (1013.3 mb)
[Sea-level pressure: 1012.8 mb]
Winds: from the WSW (240 degrees) at 8 MPH (7 knots; 3.6 m/s)
Visibility: 10 or more miles (16+ km)
Ceiling: at least 12,000 feet AGL
Clouds: sky clear below 12,000 feet AGL
Present Weather: automated observation with no human augmentation;
there may or may not be significant weather present at this time
KGNV 220753Z AUTO 24007KT 10SM CLR 27/24 A2992 RMK AO2 SLP128 T02670239

Conditions at: KGNV observed 22 June 2018  06:53 UTC
Temperature: 26.7°C (80°F)
Dewpoint: 23.9°C (75°F) [RH = 85%]
Pressure (altimeter): 29.92 inches Hg (1013.3 mb)
[Sea-level pressure: 1012.9 mb]
Winds: from the WSW (240 degrees) at 8 MPH (7 knots; 3.6 m/s)
Visibility: 10 or more miles (16+ km)
Ceiling: at least 12,000 feet AGL
Clouds: sky clear below 12,000 feet AGL
Present Weather: automated observation with no human augmentation;
there may or may not be significant weather present at this time
KGNV 220653Z AUTO 24007KT 10SM CLR 27/24 A2992 RMK AO2 SLP129 T02670239

Conditions at: KGNV observed 22 June 2018  05:53 UTC
Temperature: 27.2°C (81°F)
Dewpoint: 23.9°C (75°F) [RH = 82%]
Pressure (altimeter): 29.93 inches Hg (1013.6 mb)
[Sea-level pressure: 1013.1 mb]
Winds: from the WSW (240 degrees) at 7 MPH (6 knots; 3.1 m/s)
Visibility: 10 or more miles (16+ km)
Ceiling: at least 12,000 feet AGL
Clouds: sky clear below 12,000 feet AGL
Present Weather: automated observation with no human augmentation;
there may or may not be significant weather present at this time
KGNV 220553Z AUTO 24006KT 10SM CLR 27/24 A2993 RMK AO2 SLP131 T02720239 10289 20261 58014

Conditions at: KGNV observed 22 June 2018  04:53 UTC
Temperature: 26.7°C (80°F)
Dewpoint: 23.9°C (75°F) [RH = 85%]
Pressure (altimeter): 29.95 inches Hg (1014.3 mb)
[Sea-level pressure: 1013.6 mb]
Winds: from the SW (230 degrees) at 5 MPH (4 knots; 2.1 m/s)
Visibility: 10 or more miles (16+ km)
Ceiling: at least 12,000 feet AGL
Clouds: sky clear below 12,000 feet AGL
Present Weather: automated observation with no human augmentation;
there may or may not be significant weather present at this time
KGNV 220453Z AUTO 23004KT 10SM CLR 27/24 A2995 RMK AO2 SLP136 T02670239 403390250

Conditions at: KGNV observed 22 June 2018  03:53 UTC
Temperature: 26.7°C (80°F)
Dewpoint: 23.9°C (75°F) [RH = 85%]
Pressure (altimeter): 29.96 inches Hg (1014.6 mb)
[Sea-level pressure: 1014.0 mb]
Winds: from the SSW (200 degrees) at 6 MPH (5 knots; 2.6 m/s)
Visibility: 10 or more miles (16+ km)
Ceiling: at least 12,000 feet AGL
Clouds: sky clear below 12,000 feet AGL
Present Weather: automated observation with no human augmentation;
there may or may not be significant weather present at this time
KGNV 220353Z AUTO 20005KT 10SM CLR 27/24 A2996 RMK AO2 SLP140 T02670239

Conditions at: KGNV observed 22 June 2018  02:53 UTC
Temperature: 27.2°C (81°F)
Dewpoint: 23.9°C (75°F) [RH = 82%]
Pressure (altimeter): 29.97 inches Hg (1015.0 mb)
[Sea-level pressure: 1014.4 mb]
Winds: calm
Visibility: 10 or more miles (16+ km)
Ceiling: at least 12,000 feet AGL
Clouds: sky clear below 12,000 feet AGL
Present Weather: automated observation with no human augmentation;
there may or may not be significant weather present at this time
KGNV 220253Z AUTO 00000KT 10SM CLR 27/24 A2997 RMK AO2 SLP144 T02720239 51024

Conditions at: KGNV observed 22 June 2018  01:53 UTC
Temperature: 27.8°C (82°F)
Dewpoint: 23.9°C (75°F) [RH = 79%]
Pressure (altimeter): 29.96 inches Hg (1014.6 mb)
[Sea-level pressure: 1014.2 mb]
Winds: from the SW (220 degrees) at 5 MPH (4 knots; 2.1 m/s)
Visibility: 10 or more miles (16+ km)
Ceiling: at least 12,000 feet AGL
Clouds: sky clear below 12,000 feet AGL
Present Weather: no significant weather observed at this time
KGNV 220153Z 22004KT 10SM CLR 28/24 A2996 RMK AO2 SLP142 T02780239

Conditions at: KGNV observed 22 June 2018  00:53 UTC
Temperature: 28.3°C (83°F)
Dewpoint: 23.9°C (75°F) [RH = 77%]
Pressure (altimeter): 29.93 inches Hg (1013.6 mb)
[Sea-level pressure: 1013.2 mb]
Winds: from the SSW (210 degrees) at 5 MPH (4 knots; 2.1 m/s)
Visibility: 10 or more miles (16+ km)
Ceiling: at least 12,000 feet AGL
Clouds: sky clear below 12,000 feet AGL
Present Weather: no significant weather observed at this time
KGNV 220053Z 21004KT 10SM CLR 28/24 A2993 RMK AO2 SLP132 T02830239

Conditions at: KGNV observed 21 June 2018  23:53 UTC
Temperature: 28.9°C (84°F)
Dewpoint: 23.3°C (74°F) [RH = 72%]
Pressure (altimeter): 29.90 inches Hg (1012.6 mb)
[Sea-level pressure: 1012.0 mb]
Winds: from the WSW (250 degrees) at 9 MPH (8 knots; 4.2 m/s)
Visibility: 10 or more miles (16+ km)
Ceiling: at least 12,000 feet AGL
Clouds: sky clear below 12,000 feet AGL
Present Weather: no significant weather observed at this time
KGNV 212353Z 25008KT 10SM CLR 29/23 A2990 RMK AO2 SLP120 60008 T02890233 10328 20250 55010

Conditions at: KGNV observed 21 June 2018  22:53 UTC
Temperature: 30.0°C (86°F)
Dewpoint: 23.9°C (75°F) [RH = 70%]
Pressure (altimeter): 29.89 inches Hg (1012.3 mb)
[Sea-level pressure: 1011.9 mb]
Winds: from the WSW (250 degrees) at 12 MPH (10 knots; 5.2 m/s)
Visibility: 10 or more miles (16+ km)
Ceiling: at least 12,000 feet AGL
Clouds: sky clear below 12,000 feet AGL
Present Weather: no significant weather observed at this time
KGNV 212253Z 25010KT 10SM CLR 30/24 A2989 RMK AO2 SLP119 T03000239

Conditions at: KGNV observed 21 June 2018  21:53 UTC
Temperature: 30.0°C (86°F)
Dewpoint: 25.0°C (77°F) [RH = 75%]
Pressure (altimeter): 29.90 inches Hg (1012.6 mb)
[Sea-level pressure: 1012.3 mb]
Winds: from the SSW (210 degrees) at 9 MPH (8 knots; 4.2 m/s)
Visibility: 10 or more miles (16+ km)
Ceiling: at least 12,000 feet AGL
Clouds: sky clear below 12,000 feet AGL
Present Weather: no significant weather observed at this time
KGNV 212153Z 21008KT 10SM CLR 30/25 A2990 RMK AO2 LTG DSNT SW SLP123 T03000250

Conditions at: KGNV observed 21 June 2018  20:53 UTC
Temperature: 30.6°C (87°F)
Dewpoint: 25.0°C (77°F) [RH = 72%]
Pressure (altimeter): 29.93 inches Hg (1013.6 mb)
[Sea-level pressure: 1013.0 mb]
Winds: from the SSW (200 degrees) at 8 MPH (7 knots; 3.6 m/s)
Visibility: 10 or more miles (16+ km)
Ceiling: at least 12,000 feet AGL
Clouds: few clouds at 3200 feet AGL
Present Weather: no significant weather observed at this time
KGNV 212053Z 20007KT 10SM FEW032 31/25 A2993 RMK AO2 LTG DSNT NE AND SW SLP130 60008 T03060250 55011

Conditions at: KGNV observed 21 June 2018  19:53 UTC
Temperature: 32.2°C (90°F)
Dewpoint: 24.4°C (76°F) [RH = 64%]
Pressure (altimeter): 29.91 inches Hg (1013.0 mb)
[Sea-level pressure: 1012.6 mb]
Winds: from the WSW (250 degrees) at 10 MPH (9 knots; 4.7 m/s)
Visibility: 10 or more miles (16+ km)
Ceiling: at least 12,000 feet AGL
Clouds: sky clear below 12,000 feet AGL
Present Weather: no significant weather observed at this time
KGNV 211953Z 25009KT 10SM CLR 32/24 A2991 RMK AO2 LTG DSNT NE AND E SLP126 T03220244

Conditions at: KGNV observed 21 June 2018  18:53 UTC
Temperature: 27.8°C (82°F)
Dewpoint: 23.3°C (74°F) [RH = 77%]
Pressure (altimeter): 29.91 inches Hg (1013.0 mb)
[Sea-level pressure: 1012.5 mb]
Winds: from the WSW (250 degrees) at 9 MPH (8 knots; 4.2 m/s)
Visibility: 10 or more miles (16+ km)
Ceiling: at least 12,000 feet AGL
Clouds: sky clear below 12,000 feet AGL
Present Weather: no significant weather observed at this time
KGNV 211853Z 25008KT 10SM CLR 28/23 A2991 RMK AO2 LTG DSNT E AND W AND NW RAE28 TSE18 PRESFR SLP125 P0008 T02780233

Conditions at: KGNV observed 21 June 2018  18:24 UTC
Temperature: 26.1°C (79°F)
Dewpoint: 22.8°C (73°F) [RH = 82%]
Pressure (altimeter): 29.94 inches Hg (1014.0 mb)
Winds: from the SW (230 degrees) at 8 MPH (7 knots; 3.6 m/s)
Visibility: 10 or more miles (16+ km)
Ceiling: 6500 feet AGL
Clouds: scattered clouds at 5000 feet AGL
broken clouds at 6500 feet AGL
broken clouds at 9000 feet AGL
Present Weather: VCTS -RA  (thunderstorm in vicinity, light rain)
KGNV 211824Z 23007KT 10SM VCTS -RA SCT050 BKN065 BKN090 26/23 A2994 RMK AO2 LTG DSNT E AND SE TSE18 P0008 T02610228

Conditions at: KGNV observed 21 June 2018  17:53 UTC
Temperature: 25.6°C (78°F)
Dewpoint: 22.2°C (72°F) [RH = 82%]
Pressure (altimeter): 29.96 inches Hg (1014.6 mb)
[Sea-level pressure: 1014.3 mb]
Winds: from the SSW (210 degrees) at 20 MPH (17 knots; 8.8 m/s)
gusting to 36 MPH (31 knots; 16.1 m/s)
Visibility: 6 miles (10 km)
Ceiling: 4600 feet AGL
Clouds: scattered clouds at 3000 feet AGL
broken clouds at 4600 feet AGL
overcast cloud deck at 6000 feet AGL
Present Weather: -TSRA  (light rain associated with thunderstorm(s))
KGNV 211753Z 21017G31KT 6SM -TSRA SCT030 BKN046 OVC060 26/22 A2996 RMK AO2 PK WND 23031/1745 LTG DSNT E-SW RAB48 TSB50 SLP143 P0000 60000 T02560222 10339 20256 53005

Conditions at: KGNV observed 21 June 2018  17:43 UTC
Temperature: 27.2°C (81°F)
Dewpoint: 22.2°C (72°F) [RH = 74%]
Pressure (altimeter): 29.96 inches Hg (1014.6 mb)
Winds: from the SSW (210 degrees) at 21 MPH (18 knots; 9.4 m/s)
gusting to 33 MPH (29 knots; 15.1 m/s)
Visibility: 10 or more miles (16+ km)
Ceiling: 3500 feet AGL
Clouds: scattered clouds at 2700 feet AGL
broken clouds at 3500 feet AGL
Present Weather: no significant weather observed at this time
KGNV 211743Z 21018G29KT 10SM SCT027 BKN035 27/22 A2996 RMK AO2 PK WND 22029/1743 LTG DSNT ALQDS T02720222

Conditions at: KGNV observed 21 June 2018  17:32 UTC
Temperature: 28.3°C (83°F)
Dewpoint: 22.8°C (73°F) [RH = 72%]
Pressure (altimeter): 29.96 inches Hg (1014.6 mb)
Winds: from the SW (220 degrees) at 17 MPH (15 knots; 7.8 m/s)
gusting to 28 MPH (24 knots; 12.5 m/s)
Visibility: 10 or more miles (16+ km)
Ceiling: 2900 feet AGL
Clouds: few clouds at 2400 feet AGL
broken clouds at 2900 feet AGL
overcast cloud deck at 4800 feet AGL
Present Weather: VCTS  (thunderstorm in vicinity)
KGNV 211732Z 22015G24KT 10SM VCTS FEW024 BKN029 OVC048 28/23 A2996 RMK AO2 PK WND 22026/1722 LTG DSNT S AND SW T02830228

Conditions at: KGNV observed 21 June 2018  16:53 UTC
Temperature: 33.3°C (92°F)
Dewpoint: 25.0°C (77°F) [RH = 62%]
Pressure (altimeter): 29.94 inches Hg (1014.0 mb)
[Sea-level pressure: 1013.4 mb]
Winds: from the W (270 degrees) at 9 MPH (8 knots; 4.2 m/s)
Visibility: 10 or more miles (16+ km)
Ceiling: at least 12,000 feet AGL
Clouds: few clouds at 2700 feet AGL
Present Weather: no significant weather observed at this time
KGNV 211653Z 27008KT 10SM FEW027 33/25 A2994 RMK AO2 LTG DSNT S AND SW SLP134 T03330250